Red Oak, NC (27868)

6:26 AM EST on December 07, 2016 (GMT -0500)
Wollett Mill Deans Road | | Change Station

Elev 299 ft 36.05 °N, 77.87 °W | Updated 32 seconds ago

Partly Cloudy
Partly Cloudy
41.9 °F
Feels Like 42 °F
N
2.0
Wind Variable Wind from West

Today
High -- | Low -- °F
--% Chance of Precip.
Yesterday
High -- | Low -- °F
Precip. -- in
Pressure 29.99 in
Visibility 10.0 miles
Clouds Few 1100 ft
Windchill 42 °F
Dew Point 41 °F
Humidity 98%
Rainfall 0.00 in
Snow Depth Not available.
7:09 AM 4:57 PM
Waxing Crescent, 51% visible
SPECI KRWI 071110Z AUTO 29004KT 10SM FEW011 06/06 A2999 RMK AO2 T00610056
Pressure 29.99 in
Visibility 10.0 miles
Clouds Few 1100 ft
Windchill 42 °F
Dew Point 41 °F
Humidity 98%
Rainfall 0.00 in
Snow Depth Not available.
7:09 AM 4:57 PM
Waxing Crescent, 51% visible
SPECI KRWI 071110Z AUTO 29004KT 10SM FEW011 06/06 A2999 RMK AO2 T00610056

10-Day Weather Forecast

Almanac

Astronomy

Dec. 07, 2016 Rise Set
Actual Time
Civil Twilight
Nautical Twilight
Astronomical Twilight
Moon
Length of Visible Light
Length of Day
Tomorrow will be .
, % of the Moon is Illuminated

Today's Extremes

State Highs State Lows

Community

WunderPhotos

Upload Photos

1,956,111 photos uploaded!

WunderBlog® & News

Nearby

Air Quality

  Air Quality AQ Index Pollutant
Not available.

Snow Depth

Station Depth Elevation

Earthquake Activity

City Distance Mag. Time & Date
Minimum magnitude displayed is 2.5.

Coastal Water Temperatures

Place Temperature

Stations

Nearby Weather Stations

Station Location Temp. Windchill Dew Point Humidity Wind Precip. Elev Updated Type
                   

Watches & Warnings

There are currently no watches in effect.